createdAt,value
2022-08-01T00:00:08.960Z,16.94
2022-08-01T00:02:39.291Z,16.95
2022-08-01T00:05:08.147Z,16.67
2022-08-01T00:07:36.364Z,17.00
2022-08-01T00:10:09.055Z,17.01
2022-08-01T00:12:36.300Z,17.03
2022-08-01T00:15:05.024Z,16.93
2022-08-01T00:17:32.464Z,17.05
2022-08-01T00:19:59.344Z,17.06
2022-08-01T00:22:26.378Z,17.05
2022-08-01T00:24:53.327Z,16.78
2022-08-01T00:27:20.285Z,17.05
2022-08-01T00:30:10.153Z,17.04
2022-08-01T00:32:35.006Z,17.01
2022-08-01T00:35:01.996Z,16.99
2022-08-01T00:37:29.100Z,16.93
2022-08-01T00:39:56.122Z,16.97
2022-08-01T00:42:23.173Z,16.94
2022-08-01T00:44:50.385Z,16.93
2022-08-01T00:47:17.433Z,16.72
2022-08-01T00:49:44.682Z,16.91
2022-08-01T00:52:11.805Z,16.81
2022-08-01T00:54:39.902Z,16.66
2022-08-01T00:57:10.223Z,16.74
2022-08-01T00:59:38.087Z,16.62
2022-08-01T01:02:14.900Z,16.63
2022-08-01T01:04:44.098Z,16.79
2022-08-01T01:07:20.409Z,16.76
2022-08-01T01:09:59.914Z,16.73
2022-08-01T01:12:40.521Z,16.71
2022-08-01T01:15:14.484Z,16.62
2022-08-01T01:18:04.589Z,16.67
2022-08-01T01:20:37.053Z,16.65
2022-08-01T01:23:11.605Z,16.60
2022-08-01T01:25:38.492Z,16.61
2022-08-01T01:28:11.164Z,16.59
2022-08-01T01:30:42.205Z,16.56
2022-08-01T01:33:12.358Z,16.54
2022-08-01T01:35:47.264Z,16.51
2022-08-01T01:38:23.932Z,16.50
2022-08-01T01:40:53.817Z,16.44
2022-08-01T01:43:28.988Z,16.46
2022-08-01T01:46:03.613Z,16.43
2022-08-01T01:48:31.951Z,16.39
2022-08-01T01:51:00.771Z,16.21
2022-08-01T01:53:29.880Z,16.34
2022-08-01T01:55:59.013Z,16.29
2022-08-01T01:58:28.709Z,16.10
2022-08-01T02:00:58.564Z,16.24
2022-08-01T02:03:32.226Z,16.13
2022-08-01T02:06:01.964Z,16.19
2022-08-01T02:08:32.146Z,16.15
2022-08-01T02:11:20.291Z,16.12
2022-08-01T02:13:59.549Z,16.07
2022-08-01T02:16:30.153Z,16.01
2022-08-01T02:18:57.718Z,15.99
2022-08-01T02:21:30.481Z,15.88
2022-08-01T02:24:05.837Z,15.97
2022-08-01T02:26:35.046Z,15.90
2022-08-01T02:29:08.204Z,15.90
2022-08-01T02:31:39.712Z,15.68
2022-08-01T02:34:10.653Z,15.86
2022-08-01T02:36:38.356Z,15.84
2022-08-01T02:39:10.007Z,15.83
2022-08-01T02:41:43.556Z,15.81
2022-08-01T02:44:15.591Z,15.79
2022-08-01T02:46:56.590Z,15.76
2022-08-01T02:49:27.263Z,15.75
2022-08-01T02:51:56.734Z,15.73
2022-08-01T02:54:24.886Z,15.70
2022-08-01T02:56:54.553Z,15.62
2022-08-01T02:59:26.629Z,15.64
2022-08-01T03:01:56.536Z,15.63
2022-08-01T03:04:25.584Z,15.63
2022-08-01T03:06:55.383Z,15.63
2022-08-01T03:09:23.980Z,15.63
2022-08-01T03:11:52.217Z,15.65
2022-08-01T03:14:21.801Z,15.65
2022-08-01T03:16:51.235Z,15.66
2022-08-01T03:19:19.959Z,15.66
2022-08-01T03:21:50.440Z,15.66
2022-08-01T03:24:19.082Z,15.66
2022-08-01T03:26:47.265Z,15.66
2022-08-01T03:29:18.345Z,15.65
2022-08-01T03:31:47.273Z,15.67
2022-08-01T03:34:14.696Z,15.50
2022-08-01T03:36:54.405Z,15.68
2022-08-01T03:39:26.133Z,15.68
2022-08-01T03:41:58.893Z,15.68
2022-08-01T03:44:29.845Z,15.71
2022-08-01T03:47:03.868Z,15.70
2022-08-01T03:49:33.624Z,15.55
2022-08-01T03:52:05.855Z,15.71
2022-08-01T03:54:36.148Z,15.76
2022-08-01T03:57:04.912Z,15.78
2022-08-01T03:59:35.461Z,15.77
2022-08-01T04:02:03.160Z,15.82
2022-08-01T04:04:30.700Z,15.84
2022-08-01T04:06:57.794Z,15.86
2022-08-01T04:09:24.748Z,15.88
2022-08-01T04:11:51.722Z,15.89
2022-08-01T04:14:18.796Z,15.90
2022-08-01T04:16:45.753Z,15.96
2022-08-01T04:19:13.560Z,15.99
2022-08-01T04:21:41.226Z,16.03
2022-08-01T04:24:16.598Z,16.03
2022-08-01T04:26:46.569Z,16.07
2022-08-01T04:29:17.436Z,15.87
2022-08-01T04:31:47.661Z,16.12
2022-08-01T04:34:18.461Z,16.09
2022-08-01T04:36:47.034Z,16.20
2022-08-01T04:39:16.091Z,16.22
2022-08-01T04:41:44.474Z,16.28
2022-08-01T04:44:12.149Z,16.24
2022-08-01T04:46:40.068Z,16.39
2022-08-01T04:49:10.081Z,16.44
2022-08-01T04:51:37.184Z,16.49
2022-08-01T04:54:05.227Z,16.54
2022-08-01T04:56:35.137Z,16.58
2022-08-01T04:59:20.525Z,16.66
2022-08-01T05:01:51.913Z,16.72
2022-08-01T05:04:19.595Z,16.79
2022-08-01T05:06:46.558Z,16.82
2022-08-01T05:09:13.501Z,16.91
2022-08-01T05:11:40.393Z,16.91
2022-08-01T05:14:07.834Z,17.02
2022-08-01T05:16:35.088Z,17.02
2022-08-01T05:19:03.598Z,17.14
2022-08-01T05:21:30.702Z,17.06
2022-08-01T05:23:59.006Z,17.21
2022-08-01T05:26:26.129Z,17.33
2022-08-01T05:28:53.613Z,17.40
2022-08-01T05:31:20.642Z,17.44
2022-08-01T05:33:47.557Z,17.51
2022-08-01T05:36:14.480Z,17.55
2022-08-01T05:38:41.817Z,17.62
2022-08-01T05:41:08.861Z,17.65
2022-08-01T05:43:35.900Z,17.73
2022-08-01T05:46:02.908Z,17.76
2022-08-01T05:48:29.968Z,17.82
2022-08-01T05:50:58.895Z,17.87
2022-08-01T05:53:26.601Z,17.88
2022-08-01T05:55:53.741Z,17.99
2022-08-01T05:58:20.838Z,17.96
2022-08-01T06:00:47.853Z,17.82
2022-08-01T06:03:15.428Z,18.15
2022-08-01T06:05:42.476Z,18.21
2022-08-01T06:08:09.933Z,18.29
2022-08-01T06:10:36.960Z,18.34
2022-08-01T06:13:04.161Z,18.37
2022-08-01T06:15:34.183Z,18.42
2022-08-01T06:18:01.575Z,18.47
2022-08-01T06:20:28.653Z,18.51
2022-08-01T06:22:55.841Z,18.55
2022-08-01T06:25:23.434Z,18.60
2022-08-01T06:27:50.825Z,18.60
2022-08-01T06:30:18.440Z,18.47
2022-08-01T06:32:45.601Z,18.66
2022-08-01T06:35:12.757Z,18.66
2022-08-01T06:37:39.756Z,18.72
2022-08-01T06:40:13.380Z,18.72
2022-08-01T06:42:43.631Z,18.72
2022-08-01T06:45:12.487Z,18.85
2022-08-01T06:47:40.869Z,18.87
2022-08-01T06:50:11.625Z,18.90
2022-08-01T06:52:39.095Z,18.89
2022-08-01T06:55:06.624Z,18.98
2022-08-01T06:57:36.351Z,19.04
2022-08-01T07:00:12.600Z,19.06
2022-08-01T07:02:40.053Z,19.15
2022-08-01T07:05:07.317Z,19.12
2022-08-01T07:07:34.588Z,19.27
2022-08-01T07:10:01.821Z,19.15
2022-08-01T07:12:28.977Z,19.36
2022-08-01T07:14:56.040Z,19.32
2022-08-01T07:17:23.088Z,19.47
2022-08-01T07:19:50.026Z,19.25
2022-08-01T07:22:23.324Z,19.56
2022-08-01T07:24:54.258Z,19.52
2022-08-01T07:27:24.215Z,19.64
2022-08-01T07:29:53.749Z,19.43
2022-08-01T07:32:40.784Z,19.66
2022-08-01T07:35:28.285Z,19.73
2022-08-01T07:37:55.264Z,19.77
2022-08-01T07:40:42.401Z,19.75
2022-08-01T07:43:29.305Z,19.80
2022-08-01T07:46:16.372Z,19.83
2022-08-01T07:49:03.747Z,19.87
2022-08-01T07:52:04.214Z,19.80
2022-08-01T07:54:52.865Z,19.94
2022-08-01T07:57:40.115Z,19.99
2022-08-01T08:00:28.101Z,19.99
2022-08-01T08:03:15.614Z,20.00
2022-08-01T08:06:02.689Z,19.97
2022-08-01T08:08:50.155Z,20.02
2022-08-01T08:11:37.206Z,20.11
2022-08-01T08:14:32.220Z,20.13
2022-08-01T08:17:19.966Z,20.22
2022-08-01T08:20:09.060Z,20.16
2022-08-01T08:22:57.134Z,20.28
2022-08-01T08:25:44.114Z,20.11
2022-08-01T08:28:31.495Z,20.32
2022-08-01T08:31:24.570Z,20.42
2022-08-01T08:33:52.990Z,20.44
2022-08-01T08:36:20.029Z,20.49
2022-08-01T08:38:46.978Z,20.53
2022-08-01T08:41:37.847Z,20.58
2022-08-01T08:44:28.073Z,20.60
2022-08-01T08:47:20.490Z,20.41
2022-08-01T08:50:09.221Z,20.71
2022-08-01T08:52:59.522Z,20.75
2022-08-01T08:55:55.453Z,20.78
2022-08-01T08:58:46.816Z,20.86
2022-08-01T09:01:34.087Z,20.92
2022-08-01T09:04:21.295Z,20.84
2022-08-01T09:07:12.152Z,21.01
2022-08-01T09:09:59.431Z,21.05
2022-08-01T09:12:46.661Z,21.12
2022-08-01T09:15:13.848Z,21.12
2022-08-01T09:17:43.720Z,21.27
2022-08-01T09:20:24.754Z,21.36
2022-08-01T09:23:11.650Z,21.45
2022-08-01T09:26:13.768Z,21.51
2022-08-01T09:29:01.194Z,21.56
2022-08-01T09:31:49.411Z,21.63
2022-08-01T09:34:44.612Z,21.72
2022-08-01T09:37:37.062Z,21.77
2022-08-01T09:40:24.866Z,21.80
2022-08-01T09:43:32.328Z,21.78
2022-08-01T09:46:25.517Z,21.75
2022-08-01T09:49:26.259Z,21.73
2022-08-01T09:52:41.109Z,21.75
2022-08-01T09:55:30.814Z,21.79
2022-08-01T09:58:18.040Z,21.87
2022-08-01T10:01:19.508Z,21.93
2022-08-01T10:04:06.494Z,21.85
2022-08-01T10:06:57.789Z,22.05
2022-08-01T10:09:53.425Z,21.95
2022-08-01T10:12:45.204Z,22.03
2022-08-01T10:15:38.009Z,22.07
2022-08-01T10:18:27.953Z,21.98
2022-08-01T10:21:15.783Z,21.97
2022-08-01T10:24:03.562Z,22.12
2022-08-01T10:26:54.356Z,22.14
2022-08-01T10:29:58.953Z,22.04
2022-08-01T10:32:50.709Z,22.10
2022-08-01T10:35:46.783Z,22.03
2022-08-01T10:38:35.581Z,22.00
2022-08-01T10:41:25.358Z,22.01
2022-08-01T10:44:14.599Z,22.06
2022-08-01T10:47:10.017Z,22.01
2022-08-01T10:50:10.298Z,21.79
2022-08-01T10:53:05.631Z,21.76
2022-08-01T10:56:31.910Z,21.67
2022-08-01T10:59:49.353Z,21.56
2022-08-01T11:02:31.986Z,21.38
2022-08-01T11:05:04.317Z,21.36
2022-08-01T11:07:55.596Z,21.28
2022-08-01T11:10:37.765Z,21.22
2022-08-01T11:13:13.618Z,21.11
2022-08-01T11:15:50.259Z,21.05
2022-08-01T11:18:38.097Z,21.00
2022-08-01T11:21:59.454Z,20.96
2022-08-01T11:23:54.594Z,20.96
2022-08-01T11:26:28.889Z,20.91
2022-08-01T11:29:23.143Z,20.98
2022-08-01T11:31:51.238Z,21.03
2022-08-01T11:34:18.415Z,21.08
2022-08-01T11:37:01.701Z,21.16
2022-08-01T11:39:30.422Z,21.25
2022-08-01T11:42:19.189Z,21.26
2022-08-01T11:44:51.345Z,21.38
2022-08-01T11:47:18.485Z,21.49
2022-08-01T11:49:56.007Z,21.59
2022-08-01T11:52:34.478Z,21.65
2022-08-01T11:55:24.389Z,21.68
2022-08-01T11:58:08.969Z,21.67
2022-08-01T12:00:56.561Z,21.69
2022-08-01T12:03:33.744Z,21.47
2022-08-01T12:06:01.573Z,21.46
2022-08-01T12:08:30.952Z,21.39
2022-08-01T12:11:02.556Z,21.48
2022-08-01T12:13:40.762Z,21.38
2022-08-01T12:16:09.223Z,21.34
2022-08-01T12:18:43.841Z,21.28
2022-08-01T12:21:11.294Z,21.23
2022-08-01T12:23:38.262Z,21.17
2022-08-01T12:26:06.381Z,21.15
2022-08-01T12:28:40.604Z,20.84
2022-08-01T12:31:07.884Z,20.90
2022-08-01T12:33:35.230Z,20.91
2022-08-01T12:36:02.465Z,20.89
2022-08-01T12:38:31.303Z,20.83
2022-08-01T12:40:59.059Z,20.76
2022-08-01T12:43:28.064Z,20.70
2022-08-01T12:46:00.239Z,20.63
2022-08-01T12:48:28.133Z,20.58
2022-08-01T12:50:58.825Z,20.38
2022-08-01T12:53:27.223Z,20.51
2022-08-01T12:56:08.712Z,20.47
2022-08-01T12:58:36.229Z,20.46
2022-08-01T13:01:26.447Z,20.39
2022-08-01T13:04:22.377Z,20.37
2022-08-01T13:07:14.461Z,20.32
2022-08-01T13:10:11.158Z,20.27
2022-08-01T13:12:59.626Z,20.25
2022-08-01T13:15:48.007Z,20.16
2022-08-01T13:18:50.159Z,20.12
2022-08-01T13:21:53.679Z,20.12
2022-08-01T13:24:46.963Z,20.10
2022-08-01T13:27:54.072Z,19.84
2022-08-01T13:30:45.776Z,20.06
2022-08-01T13:33:34.289Z,19.99
2022-08-01T13:36:28.312Z,19.82
2022-08-01T13:39:14.615Z,19.91
2022-08-01T13:41:41.646Z,19.86
2022-08-01T13:44:09.982Z,19.86
2022-08-01T13:46:38.326Z,19.84
2022-08-01T13:49:37.468Z,19.78
2022-08-01T13:52:25.590Z,19.81
2022-08-01T13:55:12.442Z,19.77
2022-08-01T13:57:59.609Z,19.64
2022-08-01T14:00:46.658Z,19.45
2022-08-01T14:03:34.055Z,19.15
2022-08-01T14:06:21.716Z,19.56
2022-08-01T14:09:17.741Z,19.58
2022-08-01T14:12:05.507Z,19.59
2022-08-01T14:14:55.070Z,19.50
2022-08-01T14:17:47.982Z,19.51
2022-08-01T14:20:35.289Z,19.51
2022-08-01T14:23:22.650Z,19.48
2022-08-01T14:26:12.332Z,19.46
2022-08-01T14:29:00.189Z,19.50
2022-08-01T14:31:47.346Z,19.47
2022-08-01T14:34:34.227Z,19.43
2022-08-01T14:37:21.292Z,19.38
2022-08-01T14:40:08.281Z,19.39
2022-08-01T14:43:00.029Z,19.39
2022-08-01T14:45:47.061Z,19.42
2022-08-01T14:48:34.305Z,19.42
2022-08-01T14:51:23.703Z,19.36
2022-08-01T14:54:10.813Z,19.37
2022-08-01T14:56:57.695Z,19.36
2022-08-01T14:59:44.756Z,19.30
2022-08-01T15:02:31.733Z,19.29
2022-08-01T15:05:18.797Z,19.20
2022-08-01T15:08:10.545Z,19.35
2022-08-01T15:10:57.700Z,19.11
2022-08-01T15:13:44.644Z,19.37
2022-08-01T15:16:31.737Z,19.25
2022-08-01T15:19:18.692Z,19.37
2022-08-01T15:22:06.588Z,19.28
2022-08-01T15:24:57.277Z,19.39
2022-08-01T15:27:45.993Z,19.30
2022-08-01T15:30:33.149Z,19.35
2022-08-01T15:33:20.653Z,19.38
2022-08-01T15:36:07.601Z,19.37
2022-08-01T15:38:59.519Z,19.43
2022-08-01T15:41:46.376Z,19.45
2022-08-01T15:44:33.637Z,19.47
2022-08-01T15:47:22.594Z,19.51
2022-08-01T15:50:12.565Z,19.53
2022-08-01T15:52:59.513Z,19.56
2022-08-01T15:55:52.617Z,19.59
2022-08-01T15:58:40.128Z,19.61
2022-08-01T16:01:27.150Z,19.60
2022-08-01T16:04:14.913Z,19.64
2022-08-01T16:06:42.628Z,19.66
2022-08-01T16:09:10.132Z,19.68
2022-08-01T16:11:50.811Z,19.70
2022-08-01T16:14:18.155Z,19.70
2022-08-01T16:16:45.119Z,19.69
2022-08-01T16:19:19.479Z,19.67
2022-08-01T16:21:47.877Z,19.63
2022-08-01T16:24:17.473Z,19.68
2022-08-01T16:26:44.513Z,19.69
2022-08-01T16:29:11.484Z,19.53
2022-08-01T16:31:51.048Z,19.63
2022-08-01T16:34:25.556Z,19.69
2022-08-01T16:36:53.627Z,19.70
2022-08-01T16:39:23.476Z,19.70
2022-08-01T16:41:55.345Z,19.69
2022-08-01T16:44:26.774Z,19.71
2022-08-01T16:47:05.076Z,19.69
2022-08-01T16:49:32.902Z,19.72
2022-08-01T16:52:00.182Z,19.57
2022-08-01T16:54:27.928Z,19.73
2022-08-01T16:56:56.196Z,19.71
2022-08-01T16:59:25.083Z,19.70
2022-08-01T17:01:59.079Z,19.64
2022-08-01T17:04:29.621Z,19.69
2022-08-01T17:06:56.910Z,19.67
2022-08-01T17:09:23.978Z,19.51
2022-08-01T17:11:51.057Z,19.61
2022-08-01T17:14:18.718Z,19.62
2022-08-01T17:16:45.639Z,19.45
2022-08-01T17:19:14.825Z,19.58
2022-08-01T17:21:42.576Z,19.54
2022-08-01T17:24:11.614Z,19.32
2022-08-01T17:26:43.644Z,19.50
2022-08-01T17:29:10.521Z,19.36
2022-08-01T17:31:37.487Z,19.46
2022-08-01T17:34:04.573Z,19.43
2022-08-01T17:36:31.940Z,19.43
2022-08-01T17:38:59.762Z,19.27
2022-08-01T17:41:26.797Z,19.42
2022-08-01T17:43:53.708Z,19.36
2022-08-01T17:46:20.641Z,19.40
2022-08-01T17:48:47.999Z,19.40
2022-08-01T17:51:19.414Z,19.42
2022-08-01T17:53:55.629Z,19.42
2022-08-01T17:56:28.842Z,19.28
2022-08-01T17:58:56.526Z,19.41
2022-08-01T18:01:26.725Z,19.37
2022-08-01T18:03:55.707Z,19.37
2022-08-01T18:06:25.645Z,19.35
2022-08-01T18:08:55.497Z,19.33
2022-08-01T18:11:27.582Z,19.32
2022-08-01T18:13:56.106Z,19.11
2022-08-01T18:16:23.867Z,19.24
2022-08-01T18:18:50.792Z,19.25
2022-08-01T18:21:18.167Z,19.22
2022-08-01T18:23:51.619Z,19.20
2022-08-01T18:26:20.835Z,19.01
2022-08-01T18:28:47.793Z,18.86
2022-08-01T18:31:17.730Z,19.15
2022-08-01T18:33:45.278Z,19.11
2022-08-01T18:36:21.106Z,19.13
2022-08-01T18:39:00.574Z,19.13
2022-08-01T18:41:29.023Z,19.10
2022-08-01T18:44:04.308Z,19.09
2022-08-01T18:46:34.997Z,19.08
2022-08-01T18:49:02.155Z,19.07
2022-08-01T18:51:29.392Z,18.79
2022-08-01T18:53:58.011Z,19.05
2022-08-01T18:56:25.049Z,19.03
2022-08-01T18:58:53.514Z,19.01
2022-08-01T19:01:21.379Z,19.00
2022-08-01T19:03:48.369Z,18.98
2022-08-01T19:06:15.505Z,18.98
2022-08-01T19:08:43.468Z,18.96
2022-08-01T19:11:10.612Z,18.86
2022-08-01T19:13:38.652Z,18.96
2022-08-01T19:16:05.717Z,18.80
2022-08-01T19:18:33.775Z,18.92
2022-08-01T19:21:07.105Z,18.91
2022-08-01T19:23:52.969Z,18.84
2022-08-01T19:26:28.487Z,18.75
2022-08-01T19:29:01.320Z,18.85
2022-08-01T19:31:29.694Z,18.85
2022-08-01T19:33:58.373Z,18.59
2022-08-01T19:36:26.962Z,18.83
2022-08-01T19:38:55.589Z,18.83
2022-08-01T19:41:23.129Z,18.81
2022-08-01T19:43:51.539Z,18.81
2022-08-01T19:46:18.759Z,18.80
2022-08-01T19:48:51.503Z,18.77
2022-08-01T19:51:21.866Z,18.76
2022-08-01T19:53:55.202Z,18.75
2022-08-01T19:56:25.985Z,18.74
2022-08-01T19:59:00.351Z,18.65
2022-08-01T20:01:28.034Z,18.70
2022-08-01T20:03:56.144Z,18.69
2022-08-01T20:06:24.578Z,18.67
2022-08-01T20:08:54.674Z,18.65
2022-08-01T20:11:23.470Z,18.62
2022-08-01T20:13:51.537Z,18.57
2022-08-01T20:16:19.211Z,18.59
2022-08-01T20:18:46.218Z,18.56
2022-08-01T20:21:14.197Z,18.54
2022-08-01T20:23:43.092Z,18.53
2022-08-01T20:26:10.340Z,18.33
2022-08-01T20:28:41.815Z,18.48
2022-08-01T20:31:09.791Z,18.30
2022-08-01T20:33:42.556Z,18.45
2022-08-01T20:36:12.362Z,18.43
2022-08-01T20:38:54.775Z,18.34
2022-08-01T20:41:26.060Z,18.14
2022-08-01T20:43:55.247Z,18.34
2022-08-01T20:46:29.657Z,18.31
2022-08-01T20:48:58.574Z,18.29
2022-08-01T20:51:27.062Z,17.99
2022-08-01T20:53:55.615Z,18.13
2022-08-01T20:56:37.397Z,18.24
2022-08-01T20:59:04.864Z,18.23
2022-08-01T21:01:45.655Z,18.21
2022-08-01T21:04:30.996Z,18.19
2022-08-01T21:07:36.570Z,18.16
2022-08-01T21:10:07.172Z,18.16
2022-08-01T21:13:03.440Z,18.13
2022-08-01T21:15:31.980Z,18.02
2022-08-01T21:18:16.477Z,18.11
2022-08-01T21:20:49.237Z,18.09
2022-08-01T21:23:39.163Z,18.08
2022-08-01T21:26:28.896Z,18.03
2022-08-01T21:29:18.268Z,17.86
2022-08-01T21:32:08.287Z,17.98
2022-08-01T21:34:56.101Z,18.02
2022-08-01T21:37:43.045Z,18.02
2022-08-01T21:40:10.653Z,18.01
2022-08-01T21:42:39.843Z,18.01
2022-08-01T21:45:09.762Z,17.99
2022-08-01T21:47:38.083Z,18.02
2022-08-01T21:50:06.499Z,17.86
2022-08-01T21:52:47.003Z,18.01
2022-08-01T21:55:35.172Z,17.94
2022-08-01T21:58:24.075Z,17.99
2022-08-01T22:00:54.279Z,17.98
2022-08-01T22:03:35.632Z,17.97
2022-08-01T22:06:04.356Z,17.89
2022-08-01T22:08:36.949Z,17.91
2022-08-01T22:11:06.817Z,17.98
2022-08-01T22:13:37.478Z,17.96
2022-08-01T22:16:06.482Z,17.98
2022-08-01T22:18:35.853Z,17.96
2022-08-01T22:21:03.925Z,17.79
2022-08-01T22:23:36.926Z,17.79
2022-08-01T22:26:08.622Z,17.82
2022-08-01T22:28:37.592Z,17.90
2022-08-01T22:31:06.831Z,17.86
2022-08-01T22:33:36.691Z,17.86
2022-08-01T22:36:06.219Z,17.85
2022-08-01T22:38:34.006Z,17.80
2022-08-01T22:41:04.343Z,17.81
2022-08-01T22:43:59.939Z,17.76
2022-08-01T22:46:51.321Z,17.75
2022-08-01T22:49:48.695Z,17.72
2022-08-01T22:52:27.964Z,17.71
2022-08-01T22:55:03.308Z,17.67
2022-08-01T22:58:03.357Z,17.66
2022-08-01T23:00:32.636Z,17.64
2022-08-01T23:03:12.195Z,17.63
2022-08-01T23:05:52.503Z,17.62
2022-08-01T23:08:21.008Z,17.58
2022-08-01T23:10:48.424Z,17.57
2022-08-01T23:13:17.540Z,17.56
2022-08-01T23:15:52.308Z,17.55
2022-08-01T23:18:21.165Z,17.53
2022-08-01T23:20:50.145Z,17.51
2022-08-01T23:23:19.127Z,17.51
2022-08-01T23:26:00.641Z,17.50
2022-08-01T23:28:28.628Z,17.48
2022-08-01T23:30:56.234Z,17.47
2022-08-01T23:33:23.620Z,17.46
2022-08-01T23:35:50.922Z,17.46
2022-08-01T23:38:18.494Z,17.45
2022-08-01T23:40:45.605Z,17.36
2022-08-01T23:43:17.138Z,17.42
2022-08-01T23:46:04.721Z,17.37
2022-08-01T23:48:35.647Z,17.37
2022-08-01T23:51:04.489Z,17.38
2022-08-01T23:53:31.879Z,17.37
2022-08-01T23:56:02.662Z,17.35
2022-08-01T23:58:30.480Z,17.33
